Norris, Illinois
Current Conditions -  °F | °C
As of 12:02 PM on Thursday 27 Nov 2014 (Local Time) from KPIA Reporting Station
Overcast Overcast  
Wind Chill: 14°   Ceiling: 1500
Heat Index: 26°   Visibility: 9mi
Dew Point: 18°   Wind: 15mph
Humidity: 71%   Direction: 280°W
Pressure: 30.42"   Gusts: NA
Location:  40.63°N, 90.03°W
Report Text: KPIA 271802Z 28013KT 9SM OVC015 M03/M08 A3042 RMK AO2 T10331078
Loading
Personal Weather Stations






























Interactive Weather Map New forecast layout! Learn more

10-Day Weather Forecast

Advertisements
Track Severe Weather on mobile